RYR4568 LEGE-LKMT
Flight info
| Callsign | RYR4568 |
|---|---|
| Flight time | 1h 56m |
| Altitude | 34000 |
| Route | BGR L110 DIBER DCT NETUP DCT STP DCT RAPED DCT PIGOS DCT EKSID DCT NOSTA DCT NOPMU DCT MALUG/N0432F350 DCT UPLAV |
| Aircraft | B738/M-SDE3FGILRWY/SB1 |
Departure
| Time | 2026-05-06 11:01 |
|---|---|
| Airport | Girona-Costa Brava Airport (LEGE) |
Arrival
| Time | 2026-05-06 12:58 |
|---|---|
| Airport | Leoš Janáček Airport Ostrava (LKMT) |
| Time | Latitude | Longitude | Altitude | Speed | Heading |
|---|---|---|---|---|---|
| 2026-05-06 10:45 | 41.89809 | 2.76471 | 411 ft | 0 kts | 105° |
| 2026-05-06 10:50 | 41.89814 | 2.76444 | 410 ft | 4 kts | 97° |
| 2026-05-06 10:50 | 41.89814 | 2.76409 | 408 ft | 4 kts | 73° |
| 2026-05-06 10:50 | 41.89802 | 2.76381 | 404 ft | 4 kts | 25° |
| 2026-05-06 10:50 | 41.89791 | 2.76376 | 403 ft | 1 kts | 15° |
| 2026-05-06 10:52 | 41.89791 | 2.76375 | 403 ft | 0 kts | 15° |
| 2026-05-06 10:53 | 41.89791 | 2.76376 | 413 ft | 0 kts | 15° |
| 2026-05-06 10:53 | 41.89809 | 2.76382 | 408 ft | 5 kts | 15° |
| 2026-05-06 10:53 | 41.89845 | 2.76393 | 416 ft | 6 kts | 5° |
| 2026-05-06 10:54 | 41.89879 | 2.76372 | 413 ft | 5 kts | 314° |
| 2026-05-06 10:54 | 41.89894 | 2.76322 | 416 ft | 7 kts | 286° |
| 2026-05-06 10:54 | 41.89910 | 2.76249 | 410 ft | 9 kts | 287° |
| 2026-05-06 10:54 | 41.89955 | 2.76235 | 417 ft | 7 kts | 15° |
| 2026-05-06 10:55 | 41.90003 | 2.76252 | 413 ft | 7 kts | 15° |
| 2026-05-06 10:55 | 41.90049 | 2.76269 | 418 ft | 7 kts | 15° |
| 2026-05-06 10:55 | 41.90095 | 2.76286 | 427 ft | 7 kts | 15° |
| 2026-05-06 10:55 | 41.90140 | 2.76302 | 423 ft | 7 kts | 15° |
| 2026-05-06 10:56 | 41.90185 | 2.76320 | 425 ft | 8 kts | 16° |
| 2026-05-06 10:56 | 41.90253 | 2.76346 | 435 ft | 12 kts | 16° |
| 2026-05-06 10:56 | 41.90349 | 2.76382 | 437 ft | 16 kts | 15° |
| 2026-05-06 10:56 | 41.90468 | 2.76426 | 447 ft | 19 kts | 15° |
| 2026-05-06 10:57 | 41.90593 | 2.76475 | 453 ft | 19 kts | 15° |
| 2026-05-06 10:57 | 41.90716 | 2.76520 | 459 ft | 18 kts | 15° |
| 2026-05-06 10:57 | 41.90835 | 2.76565 | 465 ft | 17 kts | 16° |
| 2026-05-06 10:57 | 41.90949 | 2.76609 | 471 ft | 17 kts | 16° |
| 2026-05-06 10:58 | 41.91058 | 2.76651 | 477 ft | 16 kts | 15° |
| 2026-05-06 10:58 | 41.91164 | 2.76691 | 475 ft | 15 kts | 15° |
| 2026-05-06 10:58 | 41.91266 | 2.76729 | 471 ft | 15 kts | 16° |
| 2026-05-06 10:58 | 41.91363 | 2.76766 | 472 ft | 14 kts | 16° |
| 2026-05-06 10:59 | 41.91458 | 2.76800 | 469 ft | 14 kts | 5° |
| 2026-05-06 10:59 | 41.91517 | 2.76771 | 464 ft | 14 kts | 320° |
| 2026-05-06 10:59 | 41.91549 | 2.76626 | 469 ft | 9 kts | 262° |
| 2026-05-06 10:59 | 41.91520 | 2.76592 | 470 ft | 6 kts | 196° |
| 2026-05-06 11:00 | 41.91514 | 2.76590 | 470 ft | 0 kts | 195° |
| 2026-05-06 11:01 | 41.91482 | 2.76578 | 471 ft | 23 kts | 195° |
| 2026-05-06 11:01 | 41.91088 | 2.76430 | 472 ft | 94 kts | 195° |
| 2026-05-06 11:01 | 41.90242 | 2.76109 | 439 ft | 156 kts | 194° |
| 2026-05-06 11:01 | 41.89165 | 2.75683 | 1182 ft | 151 kts | 193° |
| 2026-05-06 11:02 | 41.88181 | 2.75305 | 2151 ft | 150 kts | 195° |
| 2026-05-06 11:02 | 41.87068 | 2.74889 | 2489 ft | 183 kts | 195° |
| 2026-05-06 11:02 | 41.85790 | 2.74411 | 2898 ft | 196 kts | 195° |
| 2026-05-06 11:02 | 41.84465 | 2.73917 | 3513 ft | 200 kts | 197° |
| 2026-05-06 11:03 | 41.83117 | 2.73454 | 4198 ft | 204 kts | 189° |
| 2026-05-06 11:03 | 41.81693 | 2.73750 | 4805 ft | 219 kts | 160° |
| 2026-05-06 11:03 | 41.80461 | 2.75049 | 5480 ft | 236 kts | 130° |
| 2026-05-06 11:03 | 41.79849 | 2.77137 | 6242 ft | 247 kts | 95° |
| 2026-05-06 11:04 | 41.80042 | 2.79425 | 7011 ft | 252 kts | 76° |
| 2026-05-06 11:04 | 41.80539 | 2.81677 | 7742 ft | 255 kts | 72° |
| 2026-05-06 11:04 | 41.81081 | 2.83971 | 8434 ft | 260 kts | 71° |
| 2026-05-06 11:04 | 41.81616 | 2.86299 | 9217 ft | 262 kts | 72° |
| 2026-05-06 11:05 | 41.82137 | 2.88654 | 9982 ft | 265 kts | 72° |
| 2026-05-06 11:05 | 41.82655 | 2.91043 | 10652 ft | 269 kts | 72° |
| 2026-05-06 11:05 | 41.83180 | 2.93462 | 11355 ft | 271 kts | 71° |
| 2026-05-06 11:05 | 41.83955 | 2.95805 | 11813 ft | 285 kts | 59° |
| 2026-05-06 11:06 | 41.84995 | 2.98204 | 12003 ft | 309 kts | 57° |
| 2026-05-06 11:06 | 41.86152 | 3.00771 | 12208 ft | 333 kts | 57° |
| 2026-05-06 11:06 | 41.87373 | 3.03517 | 12518 ft | 351 kts | 58° |
| 2026-05-06 11:06 | 41.88624 | 3.06383 | 13154 ft | 358 kts | 59° |
| 2026-05-06 11:07 | 41.89877 | 3.09299 | 13925 ft | 361 kts | 59° |
| 2026-05-06 11:07 | 41.91133 | 3.12248 | 14564 ft | 367 kts | 59° |
| 2026-05-06 11:07 | 41.92410 | 3.15254 | 15108 ft | 375 kts | 59° |
| 2026-05-06 11:07 | 41.93713 | 3.18325 | 15678 ft | 382 kts | 59° |
| 2026-05-06 11:08 | 41.94890 | 3.21538 | 16403 ft | 383 kts | 73° |
| 2026-05-06 11:08 | 41.95406 | 3.25035 | 17206 ft | 383 kts | 82° |
| 2026-05-06 11:08 | 41.95792 | 3.28574 | 17688 ft | 393 kts | 83° |
| 2026-05-06 11:08 | 41.96173 | 3.32237 | 18240 ft | 399 kts | 83° |
| 2026-05-06 11:09 | 41.96563 | 3.35952 | 18794 ft | 403 kts | 83° |
| 2026-05-06 11:09 | 41.96966 | 3.39706 | 19328 ft | 408 kts | 83° |
| 2026-05-06 11:09 | 41.97380 | 3.43500 | 19837 ft | 413 kts | 83° |
| 2026-05-06 11:09 | 41.97806 | 3.47343 | 20337 ft | 418 kts | 84° |
| 2026-05-06 11:10 | 41.98240 | 3.51240 | 20840 ft | 423 kts | 84° |
| 2026-05-06 11:10 | 41.98680 | 3.55169 | 21347 ft | 428 kts | 84° |
| 2026-05-06 11:10 | 41.99124 | 3.59152 | 21848 ft | 432 kts | 84° |
| 2026-05-06 11:10 | 41.99566 | 3.63120 | 22335 ft | 437 kts | 84° |
| 2026-05-06 11:11 | 42.00017 | 3.67187 | 22808 ft | 442 kts | 85° |
| 2026-05-06 11:11 | 42.00472 | 3.71297 | 23275 ft | 447 kts | 85° |
| 2026-05-06 11:11 | 42.00930 | 3.75454 | 23710 ft | 451 kts | 85° |
| 2026-05-06 11:11 | 42.01390 | 3.79640 | 24129 ft | 454 kts | 85° |
| 2026-05-06 11:12 | 42.01852 | 3.83857 | 24564 ft | 456 kts | 85° |
| 2026-05-06 11:12 | 42.02313 | 3.88078 | 25034 ft | 457 kts | 85° |
| 2026-05-06 11:12 | 42.02770 | 3.92278 | 25444 ft | 460 kts | 85° |
| 2026-05-06 11:12 | 42.03232 | 3.96553 | 25832 ft | 463 kts | 85° |
| 2026-05-06 11:13 | 42.03697 | 4.00863 | 26230 ft | 466 kts | 85° |
| 2026-05-06 11:13 | 42.04163 | 4.05200 | 26623 ft | 469 kts | 85° |
| 2026-05-06 11:13 | 42.04629 | 4.09552 | 27011 ft | 472 kts | 85° |
| 2026-05-06 11:13 | 42.05097 | 4.13933 | 27392 ft | 474 kts | 85° |
| 2026-05-06 11:14 | 42.05567 | 4.18358 | 27763 ft | 477 kts | 85° |
| 2026-05-06 11:14 | 42.06036 | 4.22783 | 28129 ft | 479 kts | 86° |
| 2026-05-06 11:14 | 42.06501 | 4.27175 | 28557 ft | 480 kts | 86° |
| 2026-05-06 11:14 | 42.06970 | 4.31635 | 28914 ft | 482 kts | 86° |
| 2026-05-06 11:15 | 42.07495 | 4.36108 | 29220 ft | 488 kts | 80° |
| 2026-05-06 11:15 | 42.08550 | 4.40478 | 29511 ft | 495 kts | 68° |
| 2026-05-06 11:15 | 42.10191 | 4.44572 | 29854 ft | 499 kts | 56° |
| 2026-05-06 11:15 | 42.12355 | 4.48240 | 30196 ft | 500 kts | 46° |
| 2026-05-06 11:16 | 42.14730 | 4.51673 | 30505 ft | 501 kts | 45° |
| 2026-05-06 11:16 | 42.17136 | 4.55080 | 30877 ft | 500 kts | 45° |
| 2026-05-06 11:16 | 42.19535 | 4.58477 | 31254 ft | 498 kts | 46° |
| 2026-05-06 11:16 | 42.21912 | 4.61877 | 31633 ft | 498 kts | 46° |
| 2026-05-06 11:17 | 42.24245 | 4.65250 | 31981 ft | 497 kts | 46° |
| 2026-05-06 11:17 | 42.26625 | 4.68723 | 32316 ft | 497 kts | 46° |
| 2026-05-06 11:17 | 42.28933 | 4.72111 | 32663 ft | 497 kts | 47° |
| 2026-05-06 11:17 | 42.31267 | 4.75548 | 33046 ft | 496 kts | 47° |
| 2026-05-06 11:18 | 42.33593 | 4.78981 | 33410 ft | 494 kts | 47° |
| 2026-05-06 11:18 | 42.35913 | 4.82408 | 33767 ft | 493 kts | 47° |
| 2026-05-06 11:18 | 42.38231 | 4.85834 | 33994 ft | 495 kts | 47° |
| 2026-05-06 11:19 | 42.42912 | 4.92759 | 33969 ft | 499 kts | 47° |
| 2026-05-06 11:19 | 42.47573 | 4.99671 | 33953 ft | 493 kts | 47° |
| 2026-05-06 11:20 | 42.52174 | 5.06508 | 33986 ft | 494 kts | 47° |
| 2026-05-06 11:20 | 42.56811 | 5.13416 | 33971 ft | 496 kts | 47° |
| 2026-05-06 11:21 | 42.61453 | 5.20348 | 33962 ft | 496 kts | 47° |
| 2026-05-06 11:21 | 42.66098 | 5.27301 | 33951 ft | 497 kts | 47° |
| 2026-05-06 11:22 | 42.70739 | 5.34264 | 33913 ft | 497 kts | 48° |
| 2026-05-06 11:22 | 42.75374 | 5.41237 | 33944 ft | 496 kts | 48° |
| 2026-05-06 11:23 | 42.79976 | 5.48175 | 33951 ft | 496 kts | 48° |
| 2026-05-06 11:23 | 42.84598 | 5.55161 | 33943 ft | 496 kts | 48° |
| 2026-05-06 11:24 | 42.89220 | 5.62164 | 33976 ft | 496 kts | 48° |
| 2026-05-06 11:24 | 42.93837 | 5.69178 | 33944 ft | 497 kts | 48° |
| 2026-05-06 11:25 | 42.98448 | 5.76200 | 33933 ft | 496 kts | 50° |
| 2026-05-06 11:25 | 43.02216 | 5.83989 | 33937 ft | 490 kts | 69° |
| 2026-05-06 11:26 | 43.04557 | 5.92686 | 33940 ft | 487 kts | 75° |
| 2026-05-06 11:26 | 43.06761 | 6.01464 | 33941 ft | 488 kts | 75° |
| 2026-05-06 11:27 | 43.09001 | 6.10188 | 33906 ft | 490 kts | 75° |
| 2026-05-06 11:27 | 43.11280 | 6.18950 | 33932 ft | 491 kts | 75° |
| 2026-05-06 11:28 | 43.13565 | 6.27752 | 33946 ft | 491 kts | 75° |
| 2026-05-06 11:28 | 43.15848 | 6.36590 | 33939 ft | 493 kts | 75° |
| 2026-05-06 11:29 | 43.18128 | 6.45454 | 33901 ft | 494 kts | 75° |
| 2026-05-06 11:29 | 43.20403 | 6.54329 | 33900 ft | 492 kts | 75° |
| 2026-05-06 11:30 | 43.23210 | 6.62936 | 33892 ft | 500 kts | 59° |
| 2026-05-06 11:30 | 43.27324 | 6.70649 | 33895 ft | 501 kts | 54° |
| 2026-05-06 11:31 | 43.31501 | 6.78310 | 33889 ft | 501 kts | 56° |
| 2026-05-06 11:31 | 43.35594 | 6.86045 | 33860 ft | 500 kts | 56° |
| 2026-05-06 11:32 | 43.39638 | 6.93745 | 33876 ft | 499 kts | 56° |
| 2026-05-06 11:32 | 43.43693 | 7.01489 | 33897 ft | 499 kts | 56° |
| 2026-05-06 11:33 | 43.47745 | 7.09249 | 33888 ft | 499 kts | 56° |
| 2026-05-06 11:33 | 43.51787 | 7.17008 | 33882 ft | 498 kts | 56° |
| 2026-05-06 11:34 | 43.55817 | 7.24767 | 33882 ft | 498 kts | 56° |
| 2026-05-06 11:34 | 43.59843 | 7.32537 | 33908 ft | 498 kts | 57° |
| 2026-05-06 11:35 | 43.63866 | 7.40317 | 33888 ft | 498 kts | 57° |
| 2026-05-06 11:35 | 43.67914 | 7.48155 | 33879 ft | 498 kts | 57° |
| 2026-05-06 11:36 | 43.71924 | 7.55943 | 33874 ft | 497 kts | 57° |
| 2026-05-06 11:36 | 43.75900 | 7.63684 | 33867 ft | 496 kts | 57° |
| 2026-05-06 11:37 | 43.79869 | 7.71486 | 33875 ft | 496 kts | 57° |
| 2026-05-06 11:37 | 43.84536 | 7.78597 | 33862 ft | 498 kts | 37° |
| 2026-05-06 11:38 | 43.90048 | 7.84298 | 33855 ft | 498 kts | 36° |
| 2026-05-06 11:38 | 43.95492 | 7.90251 | 33858 ft | 499 kts | 44° |
| 2026-05-06 11:39 | 44.00149 | 7.97356 | 33829 ft | 497 kts | 50° |
| 2026-05-06 11:39 | 44.04656 | 8.04635 | 33867 ft | 495 kts | 51° |
| 2026-05-06 11:40 | 44.09162 | 8.11868 | 33863 ft | 495 kts | 50° |
| 2026-05-06 11:40 | 44.13694 | 8.19080 | 33910 ft | 495 kts | 50° |
| 2026-05-06 11:41 | 44.18240 | 8.26305 | 33858 ft | 496 kts | 50° |
| 2026-05-06 11:41 | 44.22794 | 8.33559 | 33855 ft | 498 kts | 50° |
| 2026-05-06 11:42 | 44.27358 | 8.40852 | 33839 ft | 500 kts | 50° |
| 2026-05-06 11:42 | 44.31937 | 8.48188 | 33872 ft | 502 kts | 50° |
| 2026-05-06 11:43 | 44.36532 | 8.55570 | 33874 ft | 504 kts | 51° |
| 2026-05-06 11:43 | 44.41132 | 8.62979 | 33874 ft | 505 kts | 51° |
| 2026-05-06 11:44 | 44.47264 | 8.72887 | 33843 ft | 505 kts | 51° |
| 2026-05-06 11:44 | 44.51845 | 8.80310 | 33875 ft | 503 kts | 51° |
| 2026-05-06 11:45 | 44.56403 | 8.87715 | 33871 ft | 500 kts | 51° |
| 2026-05-06 11:45 | 44.60963 | 8.95144 | 33868 ft | 498 kts | 51° |
| 2026-05-06 11:46 | 44.65464 | 9.02495 | 33878 ft | 495 kts | 51° |
| 2026-05-06 11:46 | 44.69948 | 9.09838 | 33863 ft | 494 kts | 51° |
| 2026-05-06 11:47 | 44.74417 | 9.17176 | 33839 ft | 494 kts | 51° |
| 2026-05-06 11:47 | 44.78879 | 9.24522 | 33829 ft | 493 kts | 51° |
| 2026-05-06 11:48 | 44.83326 | 9.31862 | 33849 ft | 493 kts | 51° |
| 2026-05-06 11:48 | 44.87773 | 9.39220 | 33846 ft | 493 kts | 51° |
| 2026-05-06 11:49 | 44.92222 | 9.46602 | 33849 ft | 494 kts | 51° |
| 2026-05-06 11:49 | 44.96671 | 9.54002 | 33858 ft | 495 kts | 51° |
| 2026-05-06 11:50 | 45.01124 | 9.61430 | 33806 ft | 497 kts | 51° |
| 2026-05-06 11:50 | 45.05583 | 9.68886 | 33823 ft | 497 kts | 51° |
| 2026-05-06 11:51 | 45.10047 | 9.76370 | 33839 ft | 498 kts | 51° |
| 2026-05-06 11:51 | 45.14508 | 9.83870 | 33844 ft | 498 kts | 51° |
| 2026-05-06 11:52 | 45.18971 | 9.91391 | 33857 ft | 499 kts | 52° |
| 2026-05-06 11:52 | 45.23431 | 9.98929 | 33862 ft | 499 kts | 52° |
| 2026-05-06 11:53 | 45.27890 | 10.06485 | 33874 ft | 499 kts | 52° |
| 2026-05-06 11:53 | 45.32333 | 10.14036 | 33912 ft | 497 kts | 51° |
| 2026-05-06 11:54 | 45.36767 | 10.21589 | 33893 ft | 498 kts | 52° |
| 2026-05-06 11:54 | 45.41197 | 10.29157 | 33889 ft | 498 kts | 52° |
| 2026-05-06 11:55 | 45.45617 | 10.36730 | 33885 ft | 498 kts | 52° |
| 2026-05-06 11:55 | 45.50037 | 10.44322 | 33892 ft | 498 kts | 52° |
| 2026-05-06 11:56 | 45.54425 | 10.51880 | 33887 ft | 498 kts | 52° |
| 2026-05-06 11:56 | 45.58839 | 10.59501 | 33854 ft | 498 kts | 52° |
| 2026-05-06 11:57 | 45.63241 | 10.67124 | 33880 ft | 497 kts | 52° |
| 2026-05-06 11:57 | 45.67658 | 10.74793 | 33895 ft | 496 kts | 52° |
| 2026-05-06 11:58 | 45.72046 | 10.82436 | 33892 ft | 499 kts | 52° |
| 2026-05-06 11:58 | 45.76451 | 10.90127 | 33893 ft | 499 kts | 52° |
| 2026-05-06 11:59 | 45.80837 | 10.97804 | 33886 ft | 496 kts | 52° |
| 2026-05-06 11:59 | 45.85200 | 11.05462 | 33913 ft | 496 kts | 52° |
| 2026-05-06 12:00 | 45.89518 | 11.13063 | 33920 ft | 493 kts | 52° |
| 2026-05-06 12:00 | 45.93840 | 11.20694 | 33913 ft | 492 kts | 52° |
| 2026-05-06 12:01 | 45.98148 | 11.28319 | 33921 ft | 491 kts | 52° |
| 2026-05-06 12:01 | 46.02450 | 11.35955 | 33912 ft | 491 kts | 52° |
| 2026-05-06 12:02 | 46.06749 | 11.43606 | 33915 ft | 492 kts | 52° |
| 2026-05-06 12:02 | 46.11056 | 11.51292 | 33896 ft | 494 kts | 53° |
| 2026-05-06 12:03 | 46.15366 | 11.59005 | 33893 ft | 494 kts | 53° |
| 2026-05-06 12:03 | 46.19670 | 11.66727 | 33878 ft | 493 kts | 53° |
| 2026-05-06 12:04 | 46.23948 | 11.74426 | 33906 ft | 492 kts | 53° |
| 2026-05-06 12:04 | 46.28241 | 11.82173 | 33911 ft | 493 kts | 53° |
| 2026-05-06 12:05 | 46.32530 | 11.89933 | 33882 ft | 492 kts | 53° |
| 2026-05-06 12:05 | 46.36796 | 11.97675 | 33878 ft | 492 kts | 53° |
| 2026-05-06 12:06 | 46.41038 | 12.05396 | 33901 ft | 493 kts | 53° |
| 2026-05-06 12:06 | 46.45318 | 12.13205 | 33892 ft | 495 kts | 53° |
| 2026-05-06 12:07 | 46.49598 | 12.21037 | 33920 ft | 495 kts | 53° |
| 2026-05-06 12:07 | 46.53876 | 12.28888 | 33923 ft | 496 kts | 52° |
| 2026-05-06 12:08 | 46.58149 | 12.36751 | 33920 ft | 495 kts | 52° |
| 2026-05-06 12:08 | 46.62414 | 12.44624 | 33900 ft | 495 kts | 52° |
| 2026-05-06 12:09 | 46.66659 | 12.52481 | 33903 ft | 493 kts | 53° |
| 2026-05-06 12:09 | 46.70883 | 12.60319 | 33924 ft | 490 kts | 52° |
| 2026-05-06 12:10 | 46.75224 | 12.67983 | 33915 ft | 490 kts | 50° |
| 2026-05-06 12:10 | 46.79655 | 12.75538 | 33890 ft | 488 kts | 50° |
| 2026-05-06 12:11 | 46.84060 | 12.83094 | 33912 ft | 489 kts | 50° |
| 2026-05-06 12:11 | 46.88461 | 12.90725 | 33921 ft | 492 kts | 50° |
| 2026-05-06 12:12 | 46.92844 | 12.98374 | 33896 ft | 495 kts | 50° |
| 2026-05-06 12:12 | 46.97264 | 13.06113 | 33880 ft | 495 kts | 50° |
| 2026-05-06 12:13 | 47.01679 | 13.13861 | 33894 ft | 496 kts | 50° |
| 2026-05-06 12:13 | 47.06098 | 13.21640 | 33854 ft | 496 kts | 50° |
| 2026-05-06 12:14 | 47.10498 | 13.29403 | 33849 ft | 493 kts | 49° |
| 2026-05-06 12:14 | 47.14868 | 13.37136 | 33827 ft | 491 kts | 49° |
| 2026-05-06 12:15 | 47.19194 | 13.44814 | 33844 ft | 485 kts | 50° |
| 2026-05-06 12:15 | 47.23482 | 13.52446 | 33880 ft | 483 kts | 50° |
| 2026-05-06 12:16 | 47.27759 | 13.60079 | 33860 ft | 484 kts | 50° |
| 2026-05-06 12:16 | 47.32050 | 13.67757 | 33826 ft | 486 kts | 50° |
| 2026-05-06 12:17 | 47.36346 | 13.75467 | 33851 ft | 487 kts | 50° |
| 2026-05-06 12:17 | 47.40654 | 13.83221 | 33836 ft | 490 kts | 50° |
| 2026-05-06 12:18 | 47.44975 | 13.91022 | 33826 ft | 491 kts | 50° |
| 2026-05-06 12:18 | 47.49293 | 13.98837 | 33829 ft | 492 kts | 50° |
| 2026-05-06 12:19 | 47.53628 | 14.06707 | 33811 ft | 493 kts | 50° |
| 2026-05-06 12:19 | 47.57949 | 14.14574 | 33832 ft | 492 kts | 50° |
| 2026-05-06 12:20 | 47.62264 | 14.22454 | 33807 ft | 492 kts | 50° |
| 2026-05-06 12:20 | 47.66565 | 14.30331 | 33812 ft | 490 kts | 50° |
| 2026-05-06 12:21 | 47.70825 | 14.38155 | 33830 ft | 486 kts | 50° |
| 2026-05-06 12:21 | 47.75075 | 14.45983 | 33782 ft | 488 kts | 50° |
| 2026-05-06 12:22 | 47.79325 | 14.53834 | 33799 ft | 488 kts | 50° |
| 2026-05-06 12:22 | 47.83585 | 14.61724 | 33792 ft | 490 kts | 50° |
| 2026-05-06 12:23 | 47.87855 | 14.69658 | 33795 ft | 492 kts | 50° |
| 2026-05-06 12:23 | 47.92137 | 14.77637 | 33787 ft | 494 kts | 50° |
| 2026-05-06 12:24 | 47.96420 | 14.85642 | 33791 ft | 493 kts | 50° |
| 2026-05-06 12:24 | 47.99973 | 14.92300 | 33790 ft | 493 kts | 50° |
| 2026-05-06 12:25 | 48.04237 | 15.00314 | 33790 ft | 492 kts | 51° |
| 2026-05-06 12:25 | 48.08515 | 15.08379 | 33790 ft | 490 kts | 50° |
| 2026-05-06 12:26 | 48.12736 | 15.16358 | 33785 ft | 489 kts | 50° |
| 2026-05-06 12:26 | 48.16940 | 15.24327 | 33786 ft | 486 kts | 51° |
| 2026-05-06 12:27 | 48.21112 | 15.32261 | 33788 ft | 484 kts | 51° |
| 2026-05-06 12:27 | 48.25264 | 15.40180 | 33789 ft | 482 kts | 51° |
| 2026-05-06 12:28 | 48.29402 | 15.48094 | 33797 ft | 481 kts | 51° |
| 2026-05-06 12:28 | 48.33528 | 15.56009 | 33785 ft | 481 kts | 51° |
| 2026-05-06 12:29 | 48.37627 | 15.63895 | 33740 ft | 474 kts | 51° |
| 2026-05-06 12:29 | 48.39647 | 15.67790 | 33400 ft | 470 kts | 51° |
| 2026-05-06 12:29 | 48.41641 | 15.71640 | 33085 ft | 462 kts | 51° |
| 2026-05-06 12:30 | 48.43605 | 15.75439 | 32738 ft | 458 kts | 51° |
| 2026-05-06 12:30 | 48.45551 | 15.79207 | 32378 ft | 454 kts | 51° |
| 2026-05-06 12:30 | 48.47483 | 15.82952 | 32004 ft | 451 kts | 52° |
| 2026-05-06 12:30 | 48.49398 | 15.86670 | 31640 ft | 447 kts | 52° |
| 2026-05-06 12:31 | 48.51297 | 15.90360 | 31288 ft | 444 kts | 52° |
| 2026-05-06 12:31 | 48.53179 | 15.94025 | 30939 ft | 440 kts | 52° |
| 2026-05-06 12:31 | 48.55046 | 15.97664 | 30595 ft | 437 kts | 53° |
| 2026-05-06 12:31 | 48.56899 | 16.01282 | 30246 ft | 434 kts | 53° |
| 2026-05-06 12:32 | 48.58741 | 16.04881 | 29902 ft | 431 kts | 53° |
| 2026-05-06 12:32 | 48.60564 | 16.08450 | 29505 ft | 428 kts | 53° |
| 2026-05-06 12:32 | 48.62351 | 16.11953 | 29153 ft | 424 kts | 53° |
| 2026-05-06 12:32 | 48.64142 | 16.15469 | 28765 ft | 420 kts | 53° |
| 2026-05-06 12:33 | 48.65916 | 16.18956 | 28422 ft | 416 kts | 53° |
| 2026-05-06 12:33 | 48.67675 | 16.22417 | 28052 ft | 413 kts | 53° |
| 2026-05-06 12:33 | 48.69418 | 16.25851 | 27699 ft | 410 kts | 53° |
| 2026-05-06 12:33 | 48.71148 | 16.29265 | 27332 ft | 407 kts | 53° |
| 2026-05-06 12:34 | 48.72860 | 16.32647 | 26980 ft | 404 kts | 53° |
| 2026-05-06 12:34 | 48.74560 | 16.36010 | 26675 ft | 399 kts | 53° |
| 2026-05-06 12:34 | 48.76242 | 16.39342 | 26322 ft | 397 kts | 53° |
| 2026-05-06 12:34 | 48.77912 | 16.42651 | 25971 ft | 394 kts | 53° |
| 2026-05-06 12:35 | 48.79571 | 16.45946 | 25649 ft | 392 kts | 53° |
| 2026-05-06 12:35 | 48.81219 | 16.49222 | 25295 ft | 390 kts | 53° |
| 2026-05-06 12:35 | 48.82859 | 16.52487 | 24968 ft | 388 kts | 53° |
| 2026-05-06 12:35 | 48.84490 | 16.55736 | 24637 ft | 386 kts | 53° |
| 2026-05-06 12:36 | 48.86113 | 16.58974 | 24301 ft | 385 kts | 53° |
| 2026-05-06 12:36 | 48.87732 | 16.62207 | 23971 ft | 384 kts | 53° |
| 2026-05-06 12:36 | 48.89344 | 16.65433 | 23640 ft | 383 kts | 53° |
| 2026-05-06 12:36 | 48.90953 | 16.68653 | 23278 ft | 383 kts | 53° |
| 2026-05-06 12:37 | 48.92561 | 16.71876 | 22892 ft | 381 kts | 53° |
| 2026-05-06 12:37 | 48.94159 | 16.75083 | 22529 ft | 379 kts | 53° |
| 2026-05-06 12:37 | 48.95744 | 16.78266 | 22184 ft | 377 kts | 53° |
| 2026-05-06 12:37 | 48.97319 | 16.81436 | 21862 ft | 374 kts | 53° |
| 2026-05-06 12:38 | 48.98881 | 16.84581 | 21526 ft | 371 kts | 54° |
| 2026-05-06 12:38 | 49.00430 | 16.87705 | 21192 ft | 369 kts | 54° |
| 2026-05-06 12:38 | 49.01969 | 16.90810 | 20864 ft | 366 kts | 54° |
| 2026-05-06 12:38 | 49.03497 | 16.93900 | 20539 ft | 364 kts | 54° |
| 2026-05-06 12:39 | 49.05015 | 16.96970 | 20228 ft | 362 kts | 54° |
| 2026-05-06 12:39 | 49.06524 | 17.00026 | 19896 ft | 359 kts | 54° |
| 2026-05-06 12:39 | 49.08021 | 17.03062 | 19580 ft | 357 kts | 54° |
| 2026-05-06 12:39 | 49.09509 | 17.06084 | 19258 ft | 356 kts | 55° |
| 2026-05-06 12:40 | 49.10990 | 17.09095 | 18954 ft | 354 kts | 55° |
| 2026-05-06 12:40 | 49.12462 | 17.12089 | 18637 ft | 352 kts | 55° |
| 2026-05-06 12:40 | 49.13927 | 17.15076 | 18331 ft | 350 kts | 55° |
| 2026-05-06 12:40 | 49.15383 | 17.18046 | 17995 ft | 349 kts | 55° |
| 2026-05-06 12:41 | 49.16836 | 17.21013 | 17631 ft | 348 kts | 55° |
| 2026-05-06 12:41 | 49.18262 | 17.23928 | 17299 ft | 346 kts | 55° |
| 2026-05-06 12:41 | 49.19698 | 17.26867 | 16972 ft | 344 kts | 55° |
| 2026-05-06 12:41 | 49.21124 | 17.29788 | 16653 ft | 342 kts | 55° |
| 2026-05-06 12:42 | 49.22543 | 17.32698 | 16332 ft | 340 kts | 54° |
| 2026-05-06 12:42 | 49.23953 | 17.35593 | 16034 ft | 338 kts | 54° |
| 2026-05-06 12:42 | 49.25352 | 17.38471 | 15711 ft | 337 kts | 54° |
| 2026-05-06 12:42 | 49.26746 | 17.41339 | 15404 ft | 335 kts | 54° |
| 2026-05-06 12:43 | 49.28134 | 17.44196 | 15098 ft | 333 kts | 54° |
| 2026-05-06 12:43 | 49.29516 | 17.47045 | 14788 ft | 332 kts | 54° |
| 2026-05-06 12:43 | 49.30890 | 17.49881 | 14488 ft | 331 kts | 54° |
| 2026-05-06 12:43 | 49.32258 | 17.52716 | 14193 ft | 331 kts | 55° |
| 2026-05-06 12:44 | 49.33445 | 17.55693 | 14022 ft | 324 kts | 63° |
| 2026-05-06 12:44 | 49.34471 | 17.58756 | 13745 ft | 323 kts | 65° |
| 2026-05-06 12:44 | 49.35463 | 17.61841 | 13433 ft | 322 kts | 65° |
| 2026-05-06 12:44 | 49.36457 | 17.64922 | 13109 ft | 322 kts | 65° |
| 2026-05-06 12:45 | 49.37460 | 17.67989 | 12801 ft | 321 kts | 65° |
| 2026-05-06 12:45 | 49.38468 | 17.71041 | 12473 ft | 320 kts | 64° |
| 2026-05-06 12:45 | 49.40486 | 17.77095 | 11868 ft | 317 kts | 64° |
| 2026-05-06 12:46 | 49.41488 | 17.80094 | 11559 ft | 314 kts | 64° |
| 2026-05-06 12:46 | 49.42481 | 17.83063 | 11268 ft | 313 kts | 64° |
| 2026-05-06 12:46 | 49.43472 | 17.86032 | 10949 ft | 311 kts | 65° |
| 2026-05-06 12:46 | 49.44454 | 17.88970 | 10669 ft | 308 kts | 65° |
| 2026-05-06 12:47 | 49.45429 | 17.91897 | 10367 ft | 307 kts | 65° |
| 2026-05-06 12:47 | 49.46400 | 17.94813 | 10079 ft | 306 kts | 65° |
| 2026-05-06 12:47 | 49.47410 | 17.97649 | 9915 ft | 300 kts | 56° |
| 2026-05-06 12:47 | 49.48751 | 18.00087 | 9720 ft | 298 kts | 47° |
| 2026-05-06 12:48 | 49.50206 | 18.02351 | 9416 ft | 298 kts | 45° |
| 2026-05-06 12:48 | 49.51675 | 18.04597 | 9118 ft | 297 kts | 46° |
| 2026-05-06 12:48 | 49.53127 | 18.06846 | 8819 ft | 294 kts | 46° |
| 2026-05-06 12:48 | 49.54556 | 18.09095 | 8552 ft | 293 kts | 46° |
| 2026-05-06 12:49 | 49.55973 | 18.11348 | 8253 ft | 293 kts | 47° |
| 2026-05-06 12:49 | 49.57385 | 18.13609 | 7964 ft | 292 kts | 47° |
| 2026-05-06 12:49 | 49.58787 | 18.15865 | 7679 ft | 290 kts | 47° |
| 2026-05-06 12:49 | 49.60178 | 18.18107 | 7419 ft | 289 kts | 47° |
| 2026-05-06 12:50 | 49.61568 | 18.20354 | 7114 ft | 290 kts | 47° |
| 2026-05-06 12:50 | 49.62962 | 18.22607 | 6860 ft | 291 kts | 47° |
| 2026-05-06 12:50 | 49.64364 | 18.24875 | 6522 ft | 293 kts | 48° |
| 2026-05-06 12:50 | 49.65767 | 18.27148 | 6241 ft | 291 kts | 47° |
| 2026-05-06 12:51 | 49.67167 | 18.29418 | 5962 ft | 292 kts | 47° |
| 2026-05-06 12:51 | 49.68572 | 18.31694 | 5646 ft | 292 kts | 48° |
| 2026-05-06 12:51 | 49.69971 | 18.33966 | 5388 ft | 292 kts | 47° |
| 2026-05-06 12:51 | 49.71370 | 18.36238 | 5119 ft | 290 kts | 48° |
| 2026-05-06 12:52 | 49.72720 | 18.38435 | 5083 ft | 280 kts | 48° |
| 2026-05-06 12:52 | 49.74254 | 18.40261 | 5011 ft | 273 kts | 21° |
| 2026-05-06 12:52 | 49.76048 | 18.40728 | 4919 ft | 262 kts | 352° |
| 2026-05-06 12:52 | 49.77759 | 18.40021 | 4825 ft | 250 kts | 329° |
| 2026-05-06 12:53 | 49.79158 | 18.38540 | 4716 ft | 239 kts | 313° |
| 2026-05-06 12:53 | 49.80369 | 18.36770 | 4460 ft | 238 kts | 310° |
| 2026-05-06 12:53 | 49.81546 | 18.34994 | 4258 ft | 234 kts | 308° |
| 2026-05-06 12:53 | 49.82253 | 18.32871 | 4070 ft | 212 kts | 269° |
| 2026-05-06 12:54 | 49.81905 | 18.30864 | 3889 ft | 187 kts | 228° |
| 2026-05-06 12:54 | 49.80987 | 18.29571 | 3675 ft | 174 kts | 223° |
| 2026-05-06 12:54 | 49.80212 | 18.28170 | 3467 ft | 167 kts | 225° |
| 2026-05-06 12:54 | 49.79432 | 18.26913 | 3259 ft | 158 kts | 225° |
| 2026-05-06 12:55 | 49.78687 | 18.25727 | 3051 ft | 152 kts | 224° |
| 2026-05-06 12:55 | 49.77945 | 18.24535 | 2872 ft | 154 kts | 224° |
| 2026-05-06 12:55 | 49.77209 | 18.23347 | 2645 ft | 150 kts | 223° |
| 2026-05-06 12:55 | 49.76506 | 18.22214 | 2468 ft | 145 kts | 225° |
| 2026-05-06 12:56 | 49.75797 | 18.21069 | 2283 ft | 149 kts | 224° |
| 2026-05-06 12:56 | 49.75063 | 18.19882 | 2096 ft | 156 kts | 225° |
| 2026-05-06 12:56 | 49.74319 | 18.18680 | 1879 ft | 148 kts | 224° |
| 2026-05-06 12:56 | 49.73652 | 18.17600 | 1686 ft | 133 kts | 223° |
| 2026-05-06 12:57 | 49.73093 | 18.16695 | 1520 ft | 126 kts | 225° |
| 2026-05-06 12:57 | 49.72454 | 18.15664 | 1364 ft | 140 kts | 226° |
| 2026-05-06 12:57 | 49.71766 | 18.14551 | 1210 ft | 146 kts | 225° |
| 2026-05-06 12:57 | 49.71068 | 18.13421 | 977 ft | 142 kts | 224° |
| 2026-05-06 12:58 | 49.70399 | 18.12338 | 829 ft | 133 kts | 223° |
| 2026-05-06 12:58 | 49.69867 | 18.11483 | 831 ft | 81 kts | 226° |
| 2026-05-06 12:58 | 49.69643 | 18.11121 | 827 ft | 11 kts | 224° |
| 2026-05-06 12:58 | 49.69591 | 18.11130 | 829 ft | 8 kts | 139° |
| 2026-05-06 12:59 | 49.69549 | 18.11188 | 829 ft | 8 kts | 137° |
| 2026-05-06 12:59 | 49.69510 | 18.11245 | 830 ft | 8 kts | 136° |
| 2026-05-06 12:59 | 49.69468 | 18.11308 | 830 ft | 10 kts | 136° |
| 2026-05-06 12:59 | 49.69414 | 18.11390 | 827 ft | 9 kts | 129° |
| 2026-05-06 13:00 | 49.69428 | 18.11476 | 827 ft | 9 kts | 45° |
| 2026-05-06 13:00 | 49.69473 | 18.11548 | 830 ft | 10 kts | 46° |
| 2026-05-06 13:00 | 49.69524 | 18.11629 | 830 ft | 12 kts | 47° |
| 2026-05-06 13:00 | 49.69588 | 18.11733 | 829 ft | 13 kts | 46° |
| 2026-05-06 13:01 | 49.69602 | 18.11813 | 829 ft | 8 kts | 119° |
| 2026-05-06 13:01 | 49.69567 | 18.11874 | 829 ft | 7 kts | 137° |
| 2026-05-06 13:01 | 49.69541 | 18.11912 | 830 ft | 5 kts | 136° |
| 2026-05-06 13:01 | 49.69532 | 18.11917 | 830 ft | 0 kts | 173° |